sensor_id;sensor_type;location;lat;lon;timestamp;pressure;altitude;pressure_sealevel;temperature
20848;BMP180;10584;50.854;12.902;2022-12-29T00:04:19;97414.00;;;8.70
20848;BMP180;10584;50.854;12.902;2022-12-29T00:09:32;97411.00;;;8.60
20848;BMP180;10584;50.854;12.902;2022-12-29T00:14:36;97396.00;;;8.60
20848;BMP180;10584;50.854;12.902;2022-12-29T00:19:57;97408.00;;;8.60
20848;BMP180;10584;50.854;12.902;2022-12-29T00:25:19;97402.00;;;8.60
20848;BMP180;10584;50.854;12.902;2022-12-29T00:30:40;97404.00;;;8.40
20848;BMP180;10584;50.854;12.902;2022-12-29T00:36:30;97385.00;;;8.40
20848;BMP180;10584;50.854;12.902;2022-12-29T00:42:02;97404.00;;;8.40
20848;BMP180;10584;50.854;12.902;2022-12-29T00:47:43;97389.00;;;8.20
20848;BMP180;10584;50.854;12.902;2022-12-29T00:53:02;97386.00;;;8.20
20848;BMP180;10584;50.854;12.902;2022-12-29T00:58:12;97393.00;;;8.20
20848;BMP180;10584;50.854;12.902;2022-12-29T01:03:41;97390.00;;;8.20
20848;BMP180;10584;50.854;12.902;2022-12-29T01:08:51;97404.00;;;8.20
20848;BMP180;10584;50.854;12.902;2022-12-29T01:14:17;97402.00;;;8.20
20848;BMP180;10584;50.854;12.902;2022-12-29T01:19:27;97396.00;;;8.20
20848;BMP180;10584;50.854;12.902;2022-12-29T01:24:36;97396.00;;;8.20
20848;BMP180;10584;50.854;12.902;2022-12-29T01:29:39;97388.00;;;8.20
20848;BMP180;10584;50.854;12.902;2022-12-29T01:34:42;97383.00;;;8.30
20848;BMP180;10584;50.854;12.902;2022-12-29T01:39:45;97369.00;;;8.30
20848;BMP180;10584;50.854;12.902;2022-12-29T01:44:57;97372.00;;;8.40
20848;BMP180;10584;50.854;12.902;2022-12-29T01:50:12;97379.00;;;8.30
20848;BMP180;10584;50.854;12.902;2022-12-29T01:55:16;97359.00;;;8.40
20848;BMP180;10584;50.854;12.902;2022-12-29T02:00:21;97379.00;;;8.40
20848;BMP180;10584;50.854;12.902;2022-12-29T02:11:02;97366.00;;;8.50
20848;BMP180;10584;50.854;12.902;2022-12-29T02:39:05;97339.00;;;8.90
20848;BMP180;10584;50.854;12.902;2022-12-29T02:44:34;97327.00;;;9.10
20848;BMP180;10584;50.854;12.902;2022-12-29T02:54:54;97326.00;;;9.30
20848;BMP180;10584;50.854;12.902;2022-12-29T03:00:15;97342.00;;;9.40
20848;BMP180;10584;50.854;12.902;2022-12-29T03:16:40;97298.00;;;9.50
20848;BMP180;10584;50.854;12.902;2022-12-29T03:22:22;97285.00;;;9.50
20848;BMP180;10584;50.854;12.902;2022-12-29T03:28:16;97297.00;;;9.50
20848;BMP180;10584;50.854;12.902;2022-12-29T03:33:40;97300.00;;;9.60
20848;BMP180;10584;50.854;12.902;2022-12-29T03:39:08;97298.00;;;9.60
20848;BMP180;10584;50.854;12.902;2022-12-29T03:44:30;97309.00;;;9.60
20848;BMP180;10584;50.854;12.902;2022-12-29T03:49:40;97305.00;;;9.60
20848;BMP180;10584;50.854;12.902;2022-12-29T03:54:43;97288.00;;;9.70
20848;BMP180;10584;50.854;12.902;2022-12-29T03:59:47;97299.00;;;9.70
20848;BMP180;10584;50.854;12.902;2022-12-29T04:04:59;97304.00;;;9.70
20848;BMP180;10584;50.854;12.902;2022-12-29T04:10:18;97311.00;;;9.80
20848;BMP180;10584;50.854;12.902;2022-12-29T04:15:23;97308.00;;;9.70
20848;BMP180;10584;50.854;12.902;2022-12-29T04:20:28;97282.00;;;9.70
20848;BMP180;10584;50.854;12.902;2022-12-29T04:25:59;97317.00;;;9.70
20848;BMP180;10584;50.854;12.902;2022-12-29T04:31:21;97297.00;;;9.70
20848;BMP180;10584;50.854;12.902;2022-12-29T04:37:00;97301.00;;;9.60
20848;BMP180;10584;50.854;12.902;2022-12-29T04:42:12;97312.00;;;9.70
20848;BMP180;10584;50.854;12.902;2022-12-29T04:47:23;97294.00;;;9.70
20848;BMP180;10584;50.854;12.902;2022-12-29T04:53:07;97297.00;;;9.60
20848;BMP180;10584;50.854;12.902;2022-12-29T04:58:15;97307.00;;;9.60
20848;BMP180;10584;50.854;12.902;2022-12-29T05:03:38;97296.00;;;9.60
20848;BMP180;10584;50.854;12.902;2022-12-29T05:08:48;97299.00;;;9.60
20848;BMP180;10584;50.854;12.902;2022-12-29T05:14:02;97303.00;;;9.70
20848;BMP180;10584;50.854;12.902;2022-12-29T05:19:07;97311.00;;;9.70
20848;BMP180;10584;50.854;12.902;2022-12-29T05:24:17;97302.00;;;9.70
20848;BMP180;10584;50.854;12.902;2022-12-29T05:29:29;97310.00;;;9.70
20848;BMP180;10584;50.854;12.902;2022-12-29T05:34:33;97309.00;;;9.80
20848;BMP180;10584;50.854;12.902;2022-12-29T05:39:36;97296.00;;;9.70
20848;BMP180;10584;50.854;12.902;2022-12-29T05:44:40;97303.00;;;9.60
20848;BMP180;10584;50.854;12.902;2022-12-29T05:49:55;97315.00;;;9.60
20848;BMP180;10584;50.854;12.902;2022-12-29T05:55:17;97302.00;;;9.50
20848;BMP180;10584;50.854;12.902;2022-12-29T06:00:23;97305.00;;;9.60
20848;BMP180;10584;50.854;12.902;2022-12-29T06:05:39;97306.00;;;9.50
20848;BMP180;10584;50.854;12.902;2022-12-29T06:11:03;97322.00;;;9.50
20848;BMP180;10584;50.854;12.902;2022-12-29T06:16:34;97309.00;;;9.50
20848;BMP180;10584;50.854;12.902;2022-12-29T06:22:25;97289.00;;;9.50
20848;BMP180;10584;50.854;12.902;2022-12-29T06:27:42;97307.00;;;9.50
20848;BMP180;10584;50.854;12.902;2022-12-29T06:33:06;97307.00;;;9.50
20848;BMP180;10584;50.854;12.902;2022-12-29T06:38:23;97315.00;;;9.50
20848;BMP180;10584;50.854;12.902;2022-12-29T06:43:41;97306.00;;;9.60
20848;BMP180;10584;50.854;12.902;2022-12-29T06:49:19;97314.00;;;9.70
20848;BMP180;10584;50.854;12.902;2022-12-29T06:54:28;97314.00;;;9.70
20848;BMP180;10584;50.854;12.902;2022-12-29T06:59:36;97307.00;;;9.70
20848;BMP180;10584;50.854;12.902;2022-12-29T07:05:12;97289.00;;;9.70
20848;BMP180;10584;50.854;12.902;2022-12-29T07:10:26;97291.00;;;9.60
20848;BMP180;10584;50.854;12.902;2022-12-29T07:15:29;97294.00;;;9.50
20848;BMP180;10584;50.854;12.902;2022-12-29T07:20:33;97301.00;;;9.40
20848;BMP180;10584;50.854;12.902;2022-12-29T07:25:38;97288.00;;;9.40
20848;BMP180;10584;50.854;12.902;2022-12-29T07:30:43;97301.00;;;9.30
20848;BMP180;10584;50.854;12.902;2022-12-29T07:35:53;97294.00;;;9.30
20848;BMP180;10584;50.854;12.902;2022-12-29T07:41:21;97288.00;;;9.20
20848;BMP180;10584;50.854;12.902;2022-12-29T07:46:54;97309.00;;;9.40
20848;BMP180;10584;50.854;12.902;2022-12-29T07:52:21;97308.00;;;9.30
20848;BMP180;10584;50.854;12.902;2022-12-29T07:57:43;97316.00;;;9.40
20848;BMP180;10584;50.854;12.902;2022-12-29T08:03:11;97311.00;;;9.30
20848;BMP180;10584;50.854;12.902;2022-12-29T08:08:23;97319.00;;;9.30
20848;BMP180;10584;50.854;12.902;2022-12-29T08:13:51;97312.00;;;9.40
20848;BMP180;10584;50.854;12.902;2022-12-29T08:18:56;97317.00;;;9.30
20848;BMP180;10584;50.854;12.902;2022-12-29T08:24:10;97336.00;;;9.40
20848;BMP180;10584;50.854;12.902;2022-12-29T08:29:19;97331.00;;;9.50
20848;BMP180;10584;50.854;12.902;2022-12-29T08:34:51;97341.00;;;9.50
20848;BMP180;10584;50.854;12.902;2022-12-29T08:41:04;97340.00;;;9.40
20848;BMP180;10584;50.854;12.902;2022-12-29T08:47:08;97327.00;;;9.50
20848;BMP180;10584;50.854;12.902;2022-12-29T08:52:55;97325.00;;;9.50
20848;BMP180;10584;50.854;12.902;2022-12-29T08:58:07;97316.00;;;9.60
20848;BMP180;10584;50.854;12.902;2022-12-29T09:03:35;97297.00;;;9.60
20848;BMP180;10584;50.854;12.902;2022-12-29T09:09:12;97312.00;;;9.80
20848;BMP180;10584;50.854;12.902;2022-12-29T09:14:16;97327.00;;;9.90
20848;BMP180;10584;50.854;12.902;2022-12-29T09:19:24;97333.00;;;10.00
20848;BMP180;10584;50.854;12.902;2022-12-29T09:24:31;97314.00;;;10.00
20848;BMP180;10584;50.854;12.902;2022-12-29T09:29:34;97322.00;;;10.20
20848;BMP180;10584;50.854;12.902;2022-12-29T09:34:37;97329.00;;;10.50
20848;BMP180;10584;50.854;12.902;2022-12-29T09:39:40;97326.00;;;10.70
20848;BMP180;10584;50.854;12.902;2022-12-29T09:55:40;97324.00;;;10.70
20848;BMP180;10584;50.854;12.902;2022-12-29T10:06:45;97309.00;;;10.90
20848;BMP180;10584;50.854;12.902;2022-12-29T10:23:53;97290.00;;;11.30
20848;BMP180;10584;50.854;12.902;2022-12-29T10:29:17;97284.00;;;11.40
20848;BMP180;10584;50.854;12.902;2022-12-29T10:34:39;97279.00;;;11.50
20848;BMP180;10584;50.854;12.902;2022-12-29T10:39:53;97292.00;;;11.60
20848;BMP180;10584;50.854;12.902;2022-12-29T10:44:58;97293.00;;;11.60
20848;BMP180;10584;50.854;12.902;2022-12-29T10:50:02;97283.00;;;11.70
20848;BMP180;10584;50.854;12.902;2022-12-29T10:55:12;97290.00;;;12.00
20848;BMP180;10584;50.854;12.902;2022-12-29T11:00:20;97283.00;;;12.00
20848;BMP180;10584;50.854;12.902;2022-12-29T11:05:46;97277.00;;;11.90
20848;BMP180;10584;50.854;12.902;2022-12-29T11:11:26;97275.00;;;11.80
20848;BMP180;10584;50.854;12.902;2022-12-29T11:16:38;97280.00;;;11.70
20848;BMP180;10584;50.854;12.902;2022-12-29T11:21:58;97285.00;;;11.60
20848;BMP180;10584;50.854;12.902;2022-12-29T11:27:37;97277.00;;;11.60
20848;BMP180;10584;50.854;12.902;2022-12-29T11:33:08;97276.00;;;11.60
20848;BMP180;10584;50.854;12.902;2022-12-29T11:38:26;97292.00;;;11.70
20848;BMP180;10584;50.854;12.902;2022-12-29T11:43:46;97282.00;;;11.60
20848;BMP180;10584;50.854;12.902;2022-12-29T11:49:00;97287.00;;;11.70
20848;BMP180;10584;50.854;12.902;2022-12-29T11:54:24;97286.00;;;11.60
20848;BMP180;10584;50.854;12.902;2022-12-29T12:05:18;97275.00;;;11.60
20848;BMP180;10584;50.854;12.902;2022-12-29T12:10:33;97278.00;;;11.60
20848;BMP180;10584;50.854;12.902;2022-12-29T12:15:52;97274.00;;;11.60
20848;BMP180;10584;50.854;12.902;2022-12-29T12:39:02;97236.00;;;11.90
20848;BMP180;10584;50.854;12.902;2022-12-29T13:00:00;97244.00;;;12.10
20848;BMP180;10584;50.854;12.902;2022-12-29T13:10:42;97243.00;;;11.90
20848;BMP180;10584;50.854;12.902;2022-12-29T13:16:19;97243.00;;;11.80
20848;BMP180;10584;50.854;12.902;2022-12-29T13:21:53;97241.00;;;11.90
20848;BMP180;10584;50.854;12.902;2022-12-29T13:33:27;97248.00;;;11.90
20848;BMP180;10584;50.854;12.902;2022-12-29T13:44:56;97261.00;;;11.80
20848;BMP180;10584;50.854;12.902;2022-12-29T13:50:02;97263.00;;;11.90
20848;BMP180;10584;50.854;12.902;2022-12-29T13:55:29;97275.00;;;11.90
20848;BMP180;10584;50.854;12.902;2022-12-29T14:11:44;97281.00;;;11.70
20848;BMP180;10584;50.854;12.902;2022-12-29T14:17:33;97301.00;;;11.60
20848;BMP180;10584;50.854;12.902;2022-12-29T14:28:50;97300.00;;;11.30
20848;BMP180;10584;50.854;12.902;2022-12-29T14:39:43;97299.00;;;11.00
20848;BMP180;10584;50.854;12.902;2022-12-29T14:44:53;97298.00;;;10.90
20848;BMP180;10584;50.854;12.902;2022-12-29T14:50:10;97314.00;;;11.00
20848;BMP180;10584;50.854;12.902;2022-12-29T15:00:40;97339.00;;;10.70
20848;BMP180;10584;50.854;12.902;2022-12-29T15:05:56;97335.00;;;10.70
20848;BMP180;10584;50.854;12.902;2022-12-29T15:11:54;97345.00;;;10.50
20848;BMP180;10584;50.854;12.902;2022-12-29T15:17:31;97351.00;;;10.40
20848;BMP180;10584;50.854;12.902;2022-12-29T15:23:11;97369.00;;;10.40
20848;BMP180;10584;50.854;12.902;2022-12-29T15:28:43;97372.00;;;10.30
20848;BMP180;10584;50.854;12.902;2022-12-29T15:34:14;97371.00;;;10.20
20848;BMP180;10584;50.854;12.902;2022-12-29T15:39:32;97370.00;;;10.30
20848;BMP180;10584;50.854;12.902;2022-12-29T15:44:42;97377.00;;;10.20
20848;BMP180;10584;50.854;12.902;2022-12-29T15:49:53;97377.00;;;10.10
20848;BMP180;10584;50.854;12.902;2022-12-29T15:55:01;97389.00;;;10.10
20848;BMP180;10584;50.854;12.902;2022-12-29T16:00:22;97396.00;;;10.00
20848;BMP180;10584;50.854;12.902;2022-12-29T16:05:42;97399.00;;;9.70
20848;BMP180;10584;50.854;12.902;2022-12-29T16:11:06;97407.00;;;9.90
20848;BMP180;10584;50.854;12.902;2022-12-29T16:16:46;97415.00;;;9.80
20848;BMP180;10584;50.854;12.902;2022-12-29T16:22:26;97418.00;;;9.90
20848;BMP180;10584;50.854;12.902;2022-12-29T16:27:49;97409.00;;;9.90
20848;BMP180;10584;50.854;12.902;2022-12-29T16:39:27;97408.00;;;9.70
20848;BMP180;10584;50.854;12.902;2022-12-29T16:44:36;97405.00;;;9.70
20848;BMP180;10584;50.854;12.902;2022-12-29T16:49:48;97405.00;;;9.50
20848;BMP180;10584;50.854;12.902;2022-12-29T16:54:59;97398.00;;;9.50
20848;BMP180;10584;50.854;12.902;2022-12-29T17:00:19;97406.00;;;9.50
20848;BMP180;10584;50.854;12.902;2022-12-29T17:05:39;97416.00;;;9.40
20848;BMP180;10584;50.854;12.902;2022-12-29T17:11:08;97410.00;;;9.40
20848;BMP180;10584;50.854;12.902;2022-12-29T17:16:46;97413.00;;;9.30
20848;BMP180;10584;50.854;12.902;2022-12-29T17:22:31;97420.00;;;9.20
20848;BMP180;10584;50.854;12.902;2022-12-29T17:33:12;97419.00;;;9.20
20848;BMP180;10584;50.854;12.902;2022-12-29T17:38:38;97417.00;;;9.20
20848;BMP180;10584;50.854;12.902;2022-12-29T17:44:04;97431.00;;;9.10
20848;BMP180;10584;50.854;12.902;2022-12-29T17:49:16;97438.00;;;9.10
20848;BMP180;10584;50.854;12.902;2022-12-29T17:54:27;97453.00;;;9.00
20848;BMP180;10584;50.854;12.902;2022-12-29T17:59:38;97452.00;;;9.10
20848;BMP180;10584;50.854;12.902;2022-12-29T18:04:50;97438.00;;;8.90
20848;BMP180;10584;50.854;12.902;2022-12-29T18:10:10;97435.00;;;8.90
20848;BMP180;10584;50.854;12.902;2022-12-29T18:20:21;97421.00;;;8.80
20848;BMP180;10584;50.854;12.902;2022-12-29T18:31:29;97432.00;;;8.90
20848;BMP180;10584;50.854;12.902;2022-12-29T18:42:26;97426.00;;;8.90
20848;BMP180;10584;50.854;12.902;2022-12-29T18:47:44;97439.00;;;8.90
20848;BMP180;10584;50.854;12.902;2022-12-29T18:53:25;97412.00;;;9.00
20848;BMP180;10584;50.854;12.902;2022-12-29T18:58:44;97414.00;;;9.00
20848;BMP180;10584;50.854;12.902;2022-12-29T19:03:50;97424.00;;;9.10
20848;BMP180;10584;50.854;12.902;2022-12-29T19:09:12;97423.00;;;9.20
20848;BMP180;10584;50.854;12.902;2022-12-29T19:14:17;97431.00;;;9.30
20848;BMP180;10584;50.854;12.902;2022-12-29T19:19:27;97444.00;;;9.30
20848;BMP180;10584;50.854;12.902;2022-12-29T19:24:35;97436.00;;;9.30
20848;BMP180;10584;50.854;12.902;2022-12-29T19:29:40;97425.00;;;9.30
20848;BMP180;10584;50.854;12.902;2022-12-29T19:34:49;97438.00;;;9.20
20848;BMP180;10584;50.854;12.902;2022-12-29T19:39:52;97428.00;;;9.40
20848;BMP180;10584;50.854;12.902;2022-12-29T19:44:55;97424.00;;;9.20
20848;BMP180;10584;50.854;12.902;2022-12-29T19:49:59;97440.00;;;9.20
20848;BMP180;10584;50.854;12.902;2022-12-29T19:55:03;97442.00;;;9.10
20848;BMP180;10584;50.854;12.902;2022-12-29T20:00:07;97448.00;;;8.80
20848;BMP180;10584;50.854;12.902;2022-12-29T20:05:26;97440.00;;;8.80
20848;BMP180;10584;50.854;12.902;2022-12-29T20:11:23;97440.00;;;8.70
20848;BMP180;10584;50.854;12.902;2022-12-29T20:16:40;97435.00;;;8.70
20848;BMP180;10584;50.854;12.902;2022-12-29T20:22:15;97434.00;;;8.60
20848;BMP180;10584;50.854;12.902;2022-12-29T20:27:45;97452.00;;;8.60
20848;BMP180;10584;50.854;12.902;2022-12-29T20:33:08;97466.00;;;8.60
20848;BMP180;10584;50.854;12.902;2022-12-29T20:38:22;97467.00;;;8.50
20848;BMP180;10584;50.854;12.902;2022-12-29T20:43:40;97481.00;;;8.30
20848;BMP180;10584;50.854;12.902;2022-12-29T20:49:08;97480.00;;;8.40
20848;BMP180;10584;50.854;12.902;2022-12-29T20:54:18;97491.00;;;8.40
20848;BMP180;10584;50.854;12.902;2022-12-29T20:59:27;97489.00;;;8.00
20848;BMP180;10584;50.854;12.902;2022-12-29T21:04:42;97494.00;;;8.00
20848;BMP180;10584;50.854;12.902;2022-12-29T21:10:24;97513.00;;;8.00
20848;BMP180;10584;50.854;12.902;2022-12-29T21:15:28;97496.00;;;8.00
20848;BMP180;10584;50.854;12.902;2022-12-29T21:20:31;97509.00;;;7.80
20848;BMP180;10584;50.854;12.902;2022-12-29T21:25:34;97516.00;;;7.80
20848;BMP180;10584;50.854;12.902;2022-12-29T21:30:40;97513.00;;;7.70
20848;BMP180;10584;50.854;12.902;2022-12-29T21:35:44;97522.00;;;7.80
20848;BMP180;10584;50.854;12.902;2022-12-29T21:40:47;97530.00;;;7.80
20848;BMP180;10584;50.854;12.902;2022-12-29T21:46:00;97530.00;;;7.80
20848;BMP180;10584;50.854;12.902;2022-12-29T21:51:35;97528.00;;;7.70
20848;BMP180;10584;50.854;12.902;2022-12-29T21:57:22;97541.00;;;7.80
20848;BMP180;10584;50.854;12.902;2022-12-29T22:02:59;97531.00;;;7.70
20848;BMP180;10584;50.854;12.902;2022-12-29T22:08:34;97540.00;;;7.40
20848;BMP180;10584;50.854;12.902;2022-12-29T22:14:01;97549.00;;;7.40
20848;BMP180;10584;50.854;12.902;2022-12-29T22:19:15;97549.00;;;7.50
20848;BMP180;10584;50.854;12.902;2022-12-29T22:24:27;97551.00;;;7.50
20848;BMP180;10584;50.854;12.902;2022-12-29T22:29:36;97554.00;;;7.40
20848;BMP180;10584;50.854;12.902;2022-12-29T22:34:48;97557.00;;;7.30
20848;BMP180;10584;50.854;12.902;2022-12-29T22:39:51;97565.00;;;7.30
20848;BMP180;10584;50.854;12.902;2022-12-29T22:44:54;97583.00;;;7.30
20848;BMP180;10584;50.854;12.902;2022-12-29T22:50:00;97585.00;;;7.20
20848;BMP180;10584;50.854;12.902;2022-12-29T22:55:03;97593.00;;;7.20
20848;BMP180;10584;50.854;12.902;2022-12-29T23:00:09;97583.00;;;7.30
20848;BMP180;10584;50.854;12.902;2022-12-29T23:05:18;97592.00;;;7.30
20848;BMP180;10584;50.854;12.902;2022-12-29T23:10:51;97586.00;;;7.30
20848;BMP180;10584;50.854;12.902;2022-12-29T23:16:21;97583.00;;;7.30
20848;BMP180;10584;50.854;12.902;2022-12-29T23:21:38;97582.00;;;7.30
20848;BMP180;10584;50.854;12.902;2022-12-29T23:27:12;97597.00;;;7.20
20848;BMP180;10584;50.854;12.902;2022-12-29T23:32:39;97595.00;;;7.20
20848;BMP180;10584;50.854;12.902;2022-12-29T23:38:00;97600.00;;;7.30
20848;BMP180;10584;50.854;12.902;2022-12-29T23:43:08;97605.00;;;7.50
20848;BMP180;10584;50.854;12.902;2022-12-29T23:48:21;97613.00;;;7.50
20848;BMP180;10584;50.854;12.902;2022-12-29T23:53:44;97617.00;;;7.50
20848;BMP180;10584;50.854;12.902;2022-12-29T23:59:06;97614.00;;;7.50
